ADDS METAR Data INFO
IDs: Format: Raw Decoded Include TAF

Data at: 0552 UTC 11 Dec 2017

KSPR 110535Z AUTO 35009KT 10SM CLR 12/07 A3035 RMK A01
KSPR 110515Z AUTO 35008KT 10SM CLR 12/06 A3036 RMK A01
KSPR 110455Z AUTO 35008KT 10SM CLR 12/06 A3037 RMK A01
KSPR 110435Z AUTO 34009KT 10SM CLR 13/06 A3037 RMK A01
KSPR 110415Z AUTO 34008KT 10SM CLR 12/06 A3037 RMK A01
KSPR 110355Z AUTO 35006KT 10SM CLR 12/06 A3037 RMK A01
KSPR 110335Z AUTO 34006KT 10SM CLR 12/06 A3037 RMK A01
KSPR 110315Z AUTO 5.08000005KT 10SM CLR 12/06 A3037 RMK A01
KSPR 110255Z AUTO 33005KT 10SM CLR 12/06 A3038 RMK A01
KSPR 110235Z AUTO 34004KT 10SM CLR 13/06 A3038 RMK A01
KSPR 110215Z AUTO 32005KT 10SM CLR 12/06 A3038 RMK A01
KSPR 110155Z AUTO 34006KT 10SM CLR 12/05 A3038 RMK A01
KSPR 110135Z AUTO 33004KT 10SM CLR 12/05 A3037 RMK A01
KSPR 110115Z AUTO 00000KT 10SM CLR 12/05 A3037 RMK A01
KSPR 110055Z AUTO 00000KT 10SM CLR 12/04 A3037 RMK A01
KSPR 110035Z AUTO 00000KT 10SM CLR 12/04 A3036 RMK A01
KSPR 110015Z AUTO 00000KT 10SM CLR 12/04 A3037 RMK A01
KSPR 102355Z AUTO 00000KT 10SM CLR 12/04 A3036 RMK A01
KSPR 102335Z AUTO 35003KT 10SM CLR 12/04 A3036 RMK A01
KSPR 102315Z AUTO 33004KT 10SM CLR 12/04 A3036 RMK A01
KSPR 102255Z AUTO 34004KT 10SM CLR 13/03 A3036 RMK A01
KSPR 102235Z AUTO 35004KT 10SM CLR 13/02 A3036 RMK A01
KSPR 102215Z AUTO 34004KT 10SM CLR 13/01 A3036 RMK A01
KSPR 102155Z AUTO 34004KT 10SM CLR 13/01 A3036 RMK A01
KSPR 102135Z AUTO 34004KT 10SM CLR 14/01 A3036 RMK A01
KSPR 102115Z AUTO 32003KT 10SM CLR 14/00 A3036 RMK A01
KSPR 102055Z AUTO 00000KT 10SM CLR 14/00 A3036 RMK A01
KSPR 102035Z AUTO 34003KT 10SM CLR 14/00 A3036 RMK A01
KSPR 102015Z AUTO 00000KT 10SM CLR 13/M00 A3036 RMK A01
KSPR 101955Z AUTO 00000KT 10SM CLR 13/M01 A3037 RMK A01
KSPR 101935Z AUTO 00000KT 10SM CLR 13/M00 A3037 RMK A01
KSPR 101915Z AUTO 00000KT 10SM CLR 13/M00 A3037 RMK A01
KSPR 101855Z AUTO 04003KT 10SM CLR 14/00 A3038 RMK A01
KSPR 101835Z AUTO 00000KT 10SM CLR 13/01 A3038 RMK A01
KSPR 101815Z AUTO 04003KT 10SM CLR 13/01 A3039 RMK A01
KSPR 101755Z AUTO 03005KT 10SM CLR 13/01 A3040 RMK A01
KSPR 101735Z AUTO 03007KT 10SM CLR 13/01 A3041 RMK A01
KSPR 101715Z AUTO 02007KT 10SM CLR 12/01 A3042 RMK A01
KSPR 101655Z AUTO 03007KT 10SM CLR 12/02 A3042 RMK A01
KSPR 101635Z AUTO 02009KT 10SM CLR 12/02 A3042 RMK A01
KSPR 101615Z AUTO 02008KT 10SM CLR 12/02 A3042 RMK A01
KSPR 101555Z AUTO 01009KT 10SM CLR 12/02 A3042 RMK A01
KSPR 101535Z AUTO 01008KT 10SM CLR 12/01 A3042 RMK A01
KSPR 101515Z AUTO 01006KT 10SM CLR 12/01 A3042 RMK A01
KSPR 101455Z AUTO 03007KT 10SM CLR 12/01 A3041 RMK A01
KSPR 101435Z AUTO 03006KT 10SM CLR 12/01 A3040 RMK A01
KSPR 101415Z AUTO 03007KT 10SM CLR 12/02 A3040 RMK A01
KSPR 101355Z AUTO 02007KT 10SM CLR 12/02 A3039 RMK A01
KSPR 101335Z AUTO 04009KT 10SM CLR 12/01 A3038 RMK A01
KSPR 101315Z AUTO 03009KT 10SM CLR 12/02 A3037 RMK A01
KSPR 101255Z AUTO 03008KT 10SM CLR 12/02 A3037 RMK A01
KSPR 101235Z AUTO 01010KT 10SM CLR 12/01 A3037 RMK A01
KSPR 101215Z AUTO 01010KT 10SM CLR 12/02 A3036 RMK A01
KSPR 101155Z AUTO 01010KT 10SM FEW060 12/02 A3036 RMK A01
KSPR 101135Z AUTO 01010KT 10SM CLR 12/02 A3035 RMK A01
KSPR 101115Z AUTO 01011KT 10SM CLR 12/02 A3034 RMK A01
KSPR 101055Z AUTO 01012KT 10SM CLR 12/03 A3033 RMK A01
KSPR 101035Z AUTO 01012KT 10SM CLR 12/02 A3033 RMK A01
KSPR 101015Z AUTO 36012KT 10SM CLR 12/03 A3034 RMK A01
KSPR 100955Z AUTO 36010KT 10SM CLR 12/02 A3034 RMK A01
KSPR 100935Z AUTO 36010KT 10SM CLR 12/02 A3034 RMK A01
KSPR 100915Z AUTO 35010KT 10SM CLR 12/03 A3034 RMK A01
KSPR 100855Z AUTO 36010KT 10SM CLR 12/02 A3034 RMK A01
KSPR 100835Z AUTO 35010KT 10SM CLR 12/04 A3034 RMK A01
KSPR 100815Z AUTO 34008KT 10SM CLR 12/04 A3034 RMK A01
KSPR 100755Z AUTO 35007KT 10SM CLR 12/04 A3034 RMK A01
KSPR 100735Z AUTO 36008KT 10SM CLR 12/04 A3033 RMK A01
KSPR 100715Z AUTO 35008KT 10SM CLR 13/04 A3034 RMK A01
KSPR 100655Z AUTO 35010KT 10SM CLR 13/04 A3033 RMK A01
KSPR 100635Z AUTO 34011KT 10SM CLR 13/04 A3034 RMK A01
KSPR 100615Z AUTO 33012KT 10SM CLR 13/03 A3034 RMK A01
KSPR 100555Z AUTO 33013KT 10SM CLR 13/04 A3034 RMK A01
KSPR 100535Z AUTO 33012KT 10SM CLR 13/04 A3034 RMK A01
KSPR 100515Z AUTO 34013KT 10SM CLR 13/04 A3034 RMK A01
KSPR 100455Z AUTO 33013KT 10SM CLR 13/04 A3034 RMK A01
KSPR 100435Z AUTO 33013KT 10SM CLR 13/03 A3034 RMK A01
KSPR 100415Z AUTO 33014KT 10SM CLR 13/03 A3033 RMK A01
KSPR 100355Z AUTO 34014KT 10SM CLR 13/04 A3032 RMK A01
KSPR 100335Z AUTO 34014KT 10SM CLR 13/04 A3032 RMK A01
KSPR 100315Z AUTO 33013KT 10SM CLR 13/04 A3031 RMK A01
KSPR 100255Z AUTO 33013KT 10SM CLR 12/04 A3030 RMK A01
KSPR 100235Z AUTO 34013KT 10SM CLR 12/04 A3029 RMK A01
KSPR 100215Z AUTO 34010KT 10SM CLR 12/04 A3029 RMK A01
KSPR 100155Z AUTO 33010KT 10SM CLR 12/04 A3028 RMK A01
KSPR 100135Z AUTO 33009KT 10SM CLR 12/04 A3027 RMK A01
KSPR 100115Z AUTO 34007KT 10SM CLR 12/04 A3027 RMK A01
KSPR 100055Z AUTO 33008KT 10SM CLR 12/04 A3026 RMK A01
KSPR 100035Z AUTO 33008KT 10SM CLR 12/04 A3025 RMK A01
KSPR 100015Z AUTO 35008KT 10SM CLR 11/04 A3024 RMK A01
KSPR 092355Z AUTO 34008KT 10SM CLR 11/04 A3024 RMK A01
KSPR 092335Z AUTO 33008KT 10SM CLR 11/03 A3023 RMK A01
KSPR 092315Z AUTO 32009KT 10SM CLR 11/02 A3023 RMK A01
KSPR 092255Z AUTO 32011KT 10SM CLR 11/02 A3023 RMK A01
KSPR 092235Z AUTO 32009KT 10SM CLR 11/01 A3023 RMK A01
KSPR 092215Z AUTO 33011KT 10SM CLR 11/00 A3022 RMK A01
KSPR 092155Z AUTO 34007KT 10SM CLR 11/M00 A3022 RMK A01
KSPR 092135Z AUTO 33009KT 10SM CLR 11/M01 A3021 RMK A01
KSPR 092115Z AUTO 33010KT 10SM CLR 11/M01 A3021 RMK A01
KSPR 092055Z AUTO 33011KT 10SM CLR 11/M01 A3021 RMK A01
KSPR 092035Z AUTO 35009KT 10SM CLR 10/M02 A3022 RMK A01
KSPR 092015Z AUTO 33013KT 10SM CLR 10/M02 A3022 RMK A01
KSPR 091955Z AUTO 33012KT 10SM CLR 10/M02 A3022 RMK A01
KSPR 091935Z AUTO 32013KT 10SM CLR 10/M03 A3022 RMK A01
KSPR 091915Z AUTO 34013KT 10SM CLR 10/M03 A3022 RMK A01
KSPR 091855Z AUTO 33013KT 10SM CLR 10/M03 A3023 RMK A01
KSPR 091835Z AUTO 34014KT 10SM CLR 10/M02 A3023 RMK A01
KSPR 091815Z AUTO 33014KT 10SM CLR 10/M02 A3024 RMK A01
KSPR 091755Z AUTO 32012KT 10SM CLR 10/M02 A3025 RMK A01